Lucan, Minnesota
Current Conditions -  °F | °C
As of 9:33 AM on Thursday 30 Oct 2014 (Local Time) from KTKC Reporting Station
Clear Clear  
Wind Chill: 39°   Ceiling: Unl
Heat Index: 43°   Visibility: 10mi
Dew Point: 38°   Wind: 6mph
Humidity: 84%   Direction: 330°NNW
Pressure: 30.04"   Gusts: NA
Location:  44.41°N, 95.41°W
Report Text: KTKC 301433Z AUTO 33005KT 10SM CLR 06/03 A3004 RMK AO2 T00600034
Loading
Personal Weather Stations






























Interactive Weather Map
Tropical Storm Tracking
New forecast layout! Learn more

10-Day Weather Forecast

Advertisements
Track Severe Weather on mobile